sensor_id;sensor_type;location;lat;lon;timestamp;temperature;humidity
74081;SHT31;62438;52.228;6.864;2022-10-31T00:00:50;12.60;99.44
74081;SHT31;62438;52.228;6.864;2022-10-31T00:02:51;12.47;99.33
74081;SHT31;62438;52.228;6.864;2022-10-31T00:04:51;12.40;99.42
74081;SHT31;62438;52.228;6.864;2022-10-31T00:06:51;12.40;99.70
74081;SHT31;62438;52.228;6.864;2022-10-31T00:08:55;12.40;99.89
74081;SHT31;62438;52.228;6.864;2022-10-31T00:10:55;12.36;99.99
74081;SHT31;62438;52.228;6.864;2022-10-31T00:12:56;12.27;99.96
74081;SHT31;62438;52.228;6.864;2022-10-31T00:14:56;12.29;99.98
74081;SHT31;62438;52.228;6.864;2022-10-31T00:16:56;12.25;99.99
74081;SHT31;62438;52.228;6.864;2022-10-31T00:18:59;12.20;99.99
74081;SHT31;62438;52.228;6.864;2022-10-31T00:21:02;12.17;99.99
74081;SHT31;62438;52.228;6.864;2022-10-31T00:23:03;12.15;99.99
74081;SHT31;62438;52.228;6.864;2022-10-31T00:25:04;12.12;99.99
74081;SHT31;62438;52.228;6.864;2022-10-31T00:27:05;12.07;99.99
74081;SHT31;62438;52.228;6.864;2022-10-31T00:29:05;12.02;99.99
74081;SHT31;62438;52.228;6.864;2022-10-31T00:31:08;12.00;99.99
74081;SHT31;62438;52.228;6.864;2022-10-31T00:33:09;11.96;99.99
74081;SHT31;62438;52.228;6.864;2022-10-31T00:35:09;12.02;99.99
74081;SHT31;62438;52.228;6.864;2022-10-31T00:37:10;11.99;99.99
74081;SHT31;62438;52.228;6.864;2022-10-31T00:39:10;11.96;99.99
74081;SHT31;62438;52.228;6.864;2022-10-31T00:41:11;11.99;99.99
74081;SHT31;62438;52.228;6.864;2022-10-31T00:43:12;11.96;99.99
74081;SHT31;62438;52.228;6.864;2022-10-31T00:45:13;11.96;99.99
74081;SHT31;62438;52.228;6.864;2022-10-31T00:47:13;11.95;99.99
74081;SHT31;62438;52.228;6.864;2022-10-31T00:49:13;11.99;99.99
74081;SHT31;62438;52.228;6.864;2022-10-31T00:51:14;12.05;99.99
74081;SHT31;62438;52.228;6.864;2022-10-31T00:53:14;12.05;99.99
74081;SHT31;62438;52.228;6.864;2022-10-31T00:55:15;12.05;99.99
74081;SHT31;62438;52.228;6.864;2022-10-31T00:57:15;12.06;99.99
74081;SHT31;62438;52.228;6.864;2022-10-31T00:59:16;12.10;99.99
74081;SHT31;62438;52.228;6.864;2022-10-31T01:01:16;12.12;99.99
74081;SHT31;62438;52.228;6.864;2022-10-31T01:03:16;12.13;99.99
74081;SHT31;62438;52.228;6.864;2022-10-31T01:05:17;12.15;99.99
74081;SHT31;62438;52.228;6.864;2022-10-31T01:07:17;12.17;99.99
74081;SHT31;62438;52.228;6.864;2022-10-31T01:09:18;12.12;99.99
74081;SHT31;62438;52.228;6.864;2022-10-31T01:11:21;12.15;99.99
74081;SHT31;62438;52.228;6.864;2022-10-31T01:13:21;12.09;99.99
74081;SHT31;62438;52.228;6.864;2022-10-31T01:15:22;12.05;99.99
74081;SHT31;62438;52.228;6.864;2022-10-31T01:17:22;11.99;99.99
74081;SHT31;62438;52.228;6.864;2022-10-31T01:19:23;11.95;99.99
74081;SHT31;62438;52.228;6.864;2022-10-31T01:21:25;11.90;99.99
74081;SHT31;62438;52.228;6.864;2022-10-31T01:23:27;11.92;99.99
74081;SHT31;62438;52.228;6.864;2022-10-31T01:25:28;11.81;99.99
74081;SHT31;62438;52.228;6.864;2022-10-31T01:27:28;11.76;99.99
74081;SHT31;62438;52.228;6.864;2022-10-31T01:29:28;11.71;99.99
74081;SHT31;62438;52.228;6.864;2022-10-31T01:31:31;11.64;99.99
74081;SHT31;62438;52.228;6.864;2022-10-31T01:33:32;11.57;99.99
74081;SHT31;62438;52.228;6.864;2022-10-31T01:35:32;11.50;99.99
74081;SHT31;62438;52.228;6.864;2022-10-31T01:37:33;11.42;99.99
74081;SHT31;62438;52.228;6.864;2022-10-31T01:39:33;11.42;99.99
74081;SHT31;62438;52.228;6.864;2022-10-31T01:41:36;11.41;99.99
74081;SHT31;62438;52.228;6.864;2022-10-31T01:45:51;11.42;99.99
74081;SHT31;62438;52.228;6.864;2022-10-31T01:47:52;11.47;99.99
74081;SHT31;62438;52.228;6.864;2022-10-31T01:49:56;11.44;99.99
74081;SHT31;62438;52.228;6.864;2022-10-31T01:52:01;11.48;99.99
74081;SHT31;62438;52.228;6.864;2022-10-31T01:54:10;11.47;99.99
74081;SHT31;62438;52.228;6.864;2022-10-31T01:56:14;11.45;99.99
74081;SHT31;62438;52.228;6.864;2022-10-31T01:58:19;11.41;99.99
74081;SHT31;62438;52.228;6.864;2022-10-31T02:00:21;11.39;99.99
74081;SHT31;62438;52.228;6.864;2022-10-31T02:02:22;11.35;99.99
74081;SHT31;62438;52.228;6.864;2022-10-31T02:04:24;11.32;99.99
74081;SHT31;62438;52.228;6.864;2022-10-31T02:06:38;11.37;99.99
74081;SHT31;62438;52.228;6.864;2022-10-31T02:08:42;11.30;99.99
74081;SHT31;62438;52.228;6.864;2022-10-31T02:10:44;11.31;99.99
74081;SHT31;62438;52.228;6.864;2022-10-31T02:12:44;11.32;99.99
74081;SHT31;62438;52.228;6.864;2022-10-31T02:14:46;11.32;99.99
74081;SHT31;62438;52.228;6.864;2022-10-31T02:16:46;11.28;99.99
74081;SHT31;62438;52.228;6.864;2022-10-31T02:18:47;11.24;99.99
74081;SHT31;62438;52.228;6.864;2022-10-31T02:30:00;11.06;99.99
74081;SHT31;62438;52.228;6.864;2022-10-31T02:32:13;11.03;99.99
74081;SHT31;62438;52.228;6.864;2022-10-31T02:36:43;11.00;99.99
74081;SHT31;62438;52.228;6.864;2022-10-31T02:47:50;10.95;99.99
74081;SHT31;62438;52.228;6.864;2022-10-31T02:50:01;10.86;99.99
74081;SHT31;62438;52.228;6.864;2022-10-31T02:52:14;10.83;99.99
74081;SHT31;62438;52.228;6.864;2022-10-31T02:54:23;10.83;99.99
74081;SHT31;62438;52.228;6.864;2022-10-31T02:56:23;10.83;99.99
74081;SHT31;62438;52.228;6.864;2022-10-31T02:58:26;10.86;99.99
74081;SHT31;62438;52.228;6.864;2022-10-31T03:00:29;10.88;99.99
74081;SHT31;62438;52.228;6.864;2022-10-31T03:07:28;10.83;99.99
74081;SHT31;62438;52.228;6.864;2022-10-31T03:14:16;10.81;99.99
74081;SHT31;62438;52.228;6.864;2022-10-31T03:16:25;10.81;99.99
74081;SHT31;62438;52.228;6.864;2022-10-31T03:18:40;10.83;99.99
74081;SHT31;62438;52.228;6.864;2022-10-31T03:20:52;10.88;99.99
74081;SHT31;62438;52.228;6.864;2022-10-31T03:22:55;10.89;99.99
74081;SHT31;62438;52.228;6.864;2022-10-31T03:24:57;10.84;99.99
74081;SHT31;62438;52.228;6.864;2022-10-31T03:26:59;10.83;99.99
74081;SHT31;62438;52.228;6.864;2022-10-31T03:29:03;10.81;99.99
74081;SHT31;62438;52.228;6.864;2022-10-31T03:31:05;10.81;99.99
74081;SHT31;62438;52.228;6.864;2022-10-31T03:33:10;10.79;99.99
74081;SHT31;62438;52.228;6.864;2022-10-31T03:35:14;10.77;99.99
74081;SHT31;62438;52.228;6.864;2022-10-31T03:37:18;10.76;99.99
74081;SHT31;62438;52.228;6.864;2022-10-31T03:39:20;10.69;99.99
74081;SHT31;62438;52.228;6.864;2022-10-31T03:41:24;10.68;99.99
74081;SHT31;62438;52.228;6.864;2022-10-31T03:43:30;10.68;99.99
74081;SHT31;62438;52.228;6.864;2022-10-31T03:45:33;10.65;99.99
74081;SHT31;62438;52.228;6.864;2022-10-31T03:47:37;10.60;99.99
74081;SHT31;62438;52.228;6.864;2022-10-31T03:49:38;10.62;99.99
74081;SHT31;62438;52.228;6.864;2022-10-31T03:51:59;10.56;99.99
74081;SHT31;62438;52.228;6.864;2022-10-31T03:54:13;10.45;99.99
74081;SHT31;62438;52.228;6.864;2022-10-31T03:56:34;10.41;99.99
74081;SHT31;62438;52.228;6.864;2022-10-31T03:58:39;10.37;99.99
74081;SHT31;62438;52.228;6.864;2022-10-31T04:00:44;10.35;99.99
74081;SHT31;62438;52.228;6.864;2022-10-31T04:02:53;10.32;99.99
74081;SHT31;62438;52.228;6.864;2022-10-31T04:04:56;10.28;99.99
74081;SHT31;62438;52.228;6.864;2022-10-31T04:06:58;10.24;99.99
74081;SHT31;62438;52.228;6.864;2022-10-31T04:09:07;10.22;99.99
74081;SHT31;62438;52.228;6.864;2022-10-31T04:11:11;10.18;99.99
74081;SHT31;62438;52.228;6.864;2022-10-31T04:13:16;10.15;99.99
74081;SHT31;62438;52.228;6.864;2022-10-31T04:15:19;10.14;99.99
74081;SHT31;62438;52.228;6.864;2022-10-31T04:17:23;10.04;99.99
74081;SHT31;62438;52.228;6.864;2022-10-31T04:19:24;10.02;99.99
74081;SHT31;62438;52.228;6.864;2022-10-31T04:21:29;10.00;99.99
74081;SHT31;62438;52.228;6.864;2022-10-31T04:23:30;10.01;99.99
74081;SHT31;62438;52.228;6.864;2022-10-31T04:25:30;9.93;99.99
74081;SHT31;62438;52.228;6.864;2022-10-31T04:27:31;9.91;99.99
74081;SHT31;62438;52.228;6.864;2022-10-31T04:29:31;9.87;99.99
74081;SHT31;62438;52.228;6.864;2022-10-31T04:31:32;9.86;99.99
74081;SHT31;62438;52.228;6.864;2022-10-31T04:33:32;9.83;99.99
74081;SHT31;62438;52.228;6.864;2022-10-31T04:35:32;9.86;99.99
74081;SHT31;62438;52.228;6.864;2022-10-31T04:37:33;9.81;99.99
74081;SHT31;62438;52.228;6.864;2022-10-31T04:39:33;9.81;99.99
74081;SHT31;62438;52.228;6.864;2022-10-31T04:41:33;9.80;99.99
74081;SHT31;62438;52.228;6.864;2022-10-31T04:43:34;9.76;99.99
74081;SHT31;62438;52.228;6.864;2022-10-31T04:45:34;9.74;99.99
74081;SHT31;62438;52.228;6.864;2022-10-31T04:47:35;9.74;99.99
74081;SHT31;62438;52.228;6.864;2022-10-31T04:49:35;9.70;99.99
74081;SHT31;62438;52.228;6.864;2022-10-31T04:51:35;9.69;99.99
74081;SHT31;62438;52.228;6.864;2022-10-31T04:53:36;9.66;99.99
74081;SHT31;62438;52.228;6.864;2022-10-31T04:55:36;9.72;99.99
74081;SHT31;62438;52.228;6.864;2022-10-31T04:57:44;9.63;99.99
74081;SHT31;62438;52.228;6.864;2022-10-31T04:59:45;9.62;99.99
74081;SHT31;62438;52.228;6.864;2022-10-31T05:01:45;9.62;99.99
74081;SHT31;62438;52.228;6.864;2022-10-31T05:03:46;9.56;99.99
74081;SHT31;62438;52.228;6.864;2022-10-31T05:05:46;9.56;99.99
74081;SHT31;62438;52.228;6.864;2022-10-31T05:07:48;9.50;99.99
74081;SHT31;62438;52.228;6.864;2022-10-31T05:09:48;9.47;99.99
74081;SHT31;62438;52.228;6.864;2022-10-31T05:11:48;9.46;99.99
74081;SHT31;62438;52.228;6.864;2022-10-31T05:13:49;9.46;99.99
74081;SHT31;62438;52.228;6.864;2022-10-31T05:15:49;9.44;99.99
74081;SHT31;62438;52.228;6.864;2022-10-31T05:17:50;9.46;99.99
74081;SHT31;62438;52.228;6.864;2022-10-31T05:19:51;9.39;99.99
74081;SHT31;62438;52.228;6.864;2022-10-31T05:21:51;9.43;99.99
74081;SHT31;62438;52.228;6.864;2022-10-31T05:23:52;9.35;99.99
74081;SHT31;62438;52.228;6.864;2022-10-31T05:25:52;9.36;99.99
74081;SHT31;62438;52.228;6.864;2022-10-31T05:27:54;9.35;99.99
74081;SHT31;62438;52.228;6.864;2022-10-31T05:29:55;9.32;99.99
74081;SHT31;62438;52.228;6.864;2022-10-31T05:31:55;9.33;99.99
74081;SHT31;62438;52.228;6.864;2022-10-31T05:33:55;9.31;99.99
74081;SHT31;62438;52.228;6.864;2022-10-31T05:35:56;9.26;99.99
74081;SHT31;62438;52.228;6.864;2022-10-31T05:37:56;9.23;99.99
74081;SHT31;62438;52.228;6.864;2022-10-31T05:40:04;9.19;99.99
74081;SHT31;62438;52.228;6.864;2022-10-31T05:42:06;9.15;99.99
74081;SHT31;62438;52.228;6.864;2022-10-31T05:44:06;9.16;99.99
74081;SHT31;62438;52.228;6.864;2022-10-31T05:46:07;9.16;99.99
74081;SHT31;62438;52.228;6.864;2022-10-31T05:48:08;9.11;99.99
74081;SHT31;62438;52.228;6.864;2022-10-31T05:50:09;9.16;99.99
74081;SHT31;62438;52.228;6.864;2022-10-31T05:52:10;9.10;99.99
74081;SHT31;62438;52.228;6.864;2022-10-31T05:54:10;9.07;99.99
74081;SHT31;62438;52.228;6.864;2022-10-31T05:56:10;9.11;99.99
74081;SHT31;62438;52.228;6.864;2022-10-31T05:58:11;9.08;99.99
74081;SHT31;62438;52.228;6.864;2022-10-31T06:00:12;9.10;99.99
74081;SHT31;62438;52.228;6.864;2022-10-31T06:02:12;9.12;99.99
74081;SHT31;62438;52.228;6.864;2022-10-31T06:04:12;9.14;99.99
74081;SHT31;62438;52.228;6.864;2022-10-31T06:06:13;9.18;99.99
74081;SHT31;62438;52.228;6.864;2022-10-31T06:08:13;9.26;99.99
74081;SHT31;62438;52.228;6.864;2022-10-31T06:10:14;9.31;99.99
74081;SHT31;62438;52.228;6.864;2022-10-31T06:12:14;9.38;99.99
74081;SHT31;62438;52.228;6.864;2022-10-31T06:14:15;9.40;99.99
74081;SHT31;62438;52.228;6.864;2022-10-31T06:16:15;9.38;99.99
74081;SHT31;62438;52.228;6.864;2022-10-31T06:18:16;9.35;99.99
74081;SHT31;62438;52.228;6.864;2022-10-31T06:20:16;9.40;99.99
74081;SHT31;62438;52.228;6.864;2022-10-31T06:22:16;9.38;99.99
74081;SHT31;62438;52.228;6.864;2022-10-31T06:24:17;9.42;99.99
74081;SHT31;62438;52.228;6.864;2022-10-31T06:26:17;9.40;99.99
74081;SHT31;62438;52.228;6.864;2022-10-31T06:28:18;9.44;99.99
74081;SHT31;62438;52.228;6.864;2022-10-31T06:30:18;9.44;99.99
74081;SHT31;62438;52.228;6.864;2022-10-31T06:32:19;9.49;99.99
74081;SHT31;62438;52.228;6.864;2022-10-31T06:34:19;9.47;99.99
74081;SHT31;62438;52.228;6.864;2022-10-31T06:36:19;9.49;99.99
74081;SHT31;62438;52.228;6.864;2022-10-31T06:38:20;9.50;99.99
74081;SHT31;62438;52.228;6.864;2022-10-31T06:40:21;9.52;99.99
74081;SHT31;62438;52.228;6.864;2022-10-31T06:42:21;9.50;99.99
74081;SHT31;62438;52.228;6.864;2022-10-31T06:44:22;9.52;99.99
74081;SHT31;62438;52.228;6.864;2022-10-31T06:46:22;9.50;99.99
74081;SHT31;62438;52.228;6.864;2022-10-31T06:48:23;9.50;99.99
74081;SHT31;62438;52.228;6.864;2022-10-31T06:50:23;9.46;99.99
74081;SHT31;62438;52.228;6.864;2022-10-31T06:52:24;9.50;99.99
74081;SHT31;62438;52.228;6.864;2022-10-31T06:54:24;9.60;99.99
74081;SHT31;62438;52.228;6.864;2022-10-31T06:56:25;9.57;99.99
74081;SHT31;62438;52.228;6.864;2022-10-31T06:58:25;9.53;99.99
74081;SHT31;62438;52.228;6.864;2022-10-31T07:00:27;9.54;99.99
74081;SHT31;62438;52.228;6.864;2022-10-31T07:02:28;9.56;99.99
74081;SHT31;62438;52.228;6.864;2022-10-31T07:04:28;9.54;99.99
74081;SHT31;62438;52.228;6.864;2022-10-31T07:06:29;9.59;99.99
74081;SHT31;62438;52.228;6.864;2022-10-31T07:08:29;9.60;99.99
74081;SHT31;62438;52.228;6.864;2022-10-31T07:10:32;9.59;99.99
74081;SHT31;62438;52.228;6.864;2022-10-31T07:12:33;9.59;99.99
74081;SHT31;62438;52.228;6.864;2022-10-31T07:14:33;9.60;99.99
74081;SHT31;62438;52.228;6.864;2022-10-31T07:16:33;9.62;99.99
74081;SHT31;62438;52.228;6.864;2022-10-31T07:18:34;9.67;99.99
74081;SHT31;62438;52.228;6.864;2022-10-31T07:20:34;9.72;99.99
74081;SHT31;62438;52.228;6.864;2022-10-31T07:22:35;9.74;99.99
74081;SHT31;62438;52.228;6.864;2022-10-31T07:24:36;9.74;99.99
74081;SHT31;62438;52.228;6.864;2022-10-31T07:26:36;9.77;99.99
74081;SHT31;62438;52.228;6.864;2022-10-31T07:28:37;9.77;99.99
74081;SHT31;62438;52.228;6.864;2022-10-31T07:30:38;9.86;99.99
74081;SHT31;62438;52.228;6.864;2022-10-31T07:32:45;9.86;99.99
74081;SHT31;62438;52.228;6.864;2022-10-31T07:34:46;9.94;99.99
74081;SHT31;62438;52.228;6.864;2022-10-31T07:36:46;10.00;99.99
74081;SHT31;62438;52.228;6.864;2022-10-31T07:38:47;10.05;99.99
74081;SHT31;62438;52.228;6.864;2022-10-31T07:40:52;10.15;99.99
74081;SHT31;62438;52.228;6.864;2022-10-31T07:42:57;10.18;99.99
74081;SHT31;62438;52.228;6.864;2022-10-31T07:44:57;10.17;99.99
74081;SHT31;62438;52.228;6.864;2022-10-31T07:46:58;10.25;99.99
74081;SHT31;62438;52.228;6.864;2022-10-31T07:48:58;10.31;99.99
74081;SHT31;62438;52.228;6.864;2022-10-31T07:50:58;10.48;99.99
74081;SHT31;62438;52.228;6.864;2022-10-31T07:53:10;10.55;99.99
74081;SHT31;62438;52.228;6.864;2022-10-31T07:55:11;10.65;99.99
74081;SHT31;62438;52.228;6.864;2022-10-31T07:57:12;10.83;99.99
74081;SHT31;62438;52.228;6.864;2022-10-31T07:59:12;10.95;99.99
74081;SHT31;62438;52.228;6.864;2022-10-31T08:01:13;11.06;99.99
74081;SHT31;62438;52.228;6.864;2022-10-31T08:03:16;11.20;99.99
74081;SHT31;62438;52.228;6.864;2022-10-31T08:05:17;11.41;99.99
74081;SHT31;62438;52.228;6.864;2022-10-31T08:07:18;11.62;99.99
74081;SHT31;62438;52.228;6.864;2022-10-31T08:09:18;11.72;99.99
74081;SHT31;62438;52.228;6.864;2022-10-31T08:11:18;11.79;99.99
74081;SHT31;62438;52.228;6.864;2022-10-31T08:13:19;11.95;99.99
74081;SHT31;62438;52.228;6.864;2022-10-31T08:15:19;12.07;99.99
74081;SHT31;62438;52.228;6.864;2022-10-31T08:17:20;12.16;99.99
74081;SHT31;62438;52.228;6.864;2022-10-31T08:19:20;12.16;99.99
74081;SHT31;62438;52.228;6.864;2022-10-31T08:21:21;12.23;99.99
74081;SHT31;62438;52.228;6.864;2022-10-31T08:23:21;12.33;99.91
74081;SHT31;62438;52.228;6.864;2022-10-31T08:25:22;12.37;99.82
74081;SHT31;62438;52.228;6.864;2022-10-31T08:27:23;12.46;99.57
74081;SHT31;62438;52.228;6.864;2022-10-31T08:29:23;12.60;99.42
74081;SHT31;62438;52.228;6.864;2022-10-31T08:31:23;12.69;98.39
74081;SHT31;62438;52.228;6.864;2022-10-31T08:33:26;12.77;98.28
74081;SHT31;62438;52.228;6.864;2022-10-31T08:35:27;12.80;97.74
74081;SHT31;62438;52.228;6.864;2022-10-31T08:37:27;12.78;98.40
74081;SHT31;62438;52.228;6.864;2022-10-31T08:39:27;12.82;98.15
74081;SHT31;62438;52.228;6.864;2022-10-31T08:41:28;12.78;97.68
74081;SHT31;62438;52.228;6.864;2022-10-31T08:43:29;12.77;98.34
74081;SHT31;62438;52.228;6.864;2022-10-31T08:45:31;12.78;98.15
74081;SHT31;62438;52.228;6.864;2022-10-31T08:47:32;12.92;97.26
74081;SHT31;62438;52.228;6.864;2022-10-31T08:49:32;12.98;97.63
74081;SHT31;62438;52.228;6.864;2022-10-31T08:51:33;13.05;96.86
74081;SHT31;62438;52.228;6.864;2022-10-31T08:53:33;13.15;96.67
74081;SHT31;62438;52.228;6.864;2022-10-31T08:55:34;13.19;96.00
74081;SHT31;62438;52.228;6.864;2022-10-31T08:57:38;13.20;96.20
74081;SHT31;62438;52.228;6.864;2022-10-31T08:59:38;13.30;95.70
74081;SHT31;62438;52.228;6.864;2022-10-31T09:01:38;13.39;96.07
74081;SHT31;62438;52.228;6.864;2022-10-31T09:03:39;13.50;95.57
74081;SHT31;62438;52.228;6.864;2022-10-31T09:05:39;13.67;94.79
74081;SHT31;62438;52.228;6.864;2022-10-31T09:07:40;13.69;94.67
74081;SHT31;62438;52.228;6.864;2022-10-31T09:09:40;13.80;94.38
74081;SHT31;62438;52.228;6.864;2022-10-31T09:11:40;13.84;94.57
74081;SHT31;62438;52.228;6.864;2022-10-31T09:13:41;13.90;94.06
74081;SHT31;62438;52.228;6.864;2022-10-31T09:15:45;14.04;93.67
74081;SHT31;62438;52.228;6.864;2022-10-31T09:17:47;14.08;93.12
74081;SHT31;62438;52.228;6.864;2022-10-31T09:19:47;14.29;92.92
74081;SHT31;62438;52.228;6.864;2022-10-31T09:21:52;14.29;92.65
74081;SHT31;62438;52.228;6.864;2022-10-31T09:23:53;14.35;92.24
74081;SHT31;62438;52.228;6.864;2022-10-31T09:25:54;14.42;92.30
74081;SHT31;62438;52.228;6.864;2022-10-31T09:27:58;14.48;92.19
74081;SHT31;62438;52.228;6.864;2022-10-31T09:29:59;14.59;91.67
74081;SHT31;62438;52.228;6.864;2022-10-31T09:31:59;14.70;91.29
74081;SHT31;62438;52.228;6.864;2022-10-31T09:34:00;14.91;91.24
74081;SHT31;62438;52.228;6.864;2022-10-31T09:36:00;15.07;90.62
74081;SHT31;62438;52.228;6.864;2022-10-31T09:38:03;15.28;89.38
74081;SHT31;62438;52.228;6.864;2022-10-31T09:40:04;15.31;89.29
74081;SHT31;62438;52.228;6.864;2022-10-31T09:42:09;15.39;88.79
74081;SHT31;62438;52.228;6.864;2022-10-31T09:44:30;15.45;88.00
74081;SHT31;62438;52.228;6.864;2022-10-31T09:47:02;15.54;87.63
74081;SHT31;62438;52.228;6.864;2022-10-31T09:49:27;15.59;87.35
74081;SHT31;62438;52.228;6.864;2022-10-31T09:51:37;15.62;85.67
74081;SHT31;62438;52.228;6.864;2022-10-31T09:53:43;15.62;84.09
74081;SHT31;62438;52.228;6.864;2022-10-31T09:55:45;15.62;83.92
74081;SHT31;62438;52.228;6.864;2022-10-31T09:57:48;15.85;84.37
74081;SHT31;62438;52.228;6.864;2022-10-31T09:59:49;16.07;82.95
74081;SHT31;62438;52.228;6.864;2022-10-31T10:02:16;16.21;81.04
74081;SHT31;62438;52.228;6.864;2022-10-31T10:04:22;16.24;80.14
74081;SHT31;62438;52.228;6.864;2022-10-31T10:06:29;16.21;79.38
74081;SHT31;62438;52.228;6.864;2022-10-31T10:08:33;16.23;81.39
74081;SHT31;62438;52.228;6.864;2022-10-31T10:13:05;16.10;79.40
74081;SHT31;62438;52.228;6.864;2022-10-31T10:15:26;16.09;79.28
74081;SHT31;62438;52.228;6.864;2022-10-31T10:17:49;15.99;80.42
74081;SHT31;62438;52.228;6.864;2022-10-31T10:20:17;15.89;81.08
74081;SHT31;62438;52.228;6.864;2022-10-31T10:22:47;15.89;79.57
74081;SHT31;62438;52.228;6.864;2022-10-31T10:27:15;15.93;78.19
74081;SHT31;62438;52.228;6.864;2022-10-31T10:31:37;15.96;78.92
74081;SHT31;62438;52.228;6.864;2022-10-31T10:38:39;16.43;76.96
74081;SHT31;62438;52.228;6.864;2022-10-31T10:40:43;16.53;76.80
74081;SHT31;62438;52.228;6.864;2022-10-31T10:42:56;16.50;76.88
74081;SHT31;62438;52.228;6.864;2022-10-31T10:45:18;16.48;77.15
74081;SHT31;62438;52.228;6.864;2022-10-31T10:48:13;16.65;77.82
74081;SHT31;62438;52.228;6.864;2022-10-31T10:50:20;16.41;77.50
74081;SHT31;62438;52.228;6.864;2022-10-31T10:54:57;16.57;77.94
74081;SHT31;62438;52.228;6.864;2022-10-31T10:59:18;16.47;77.79
74081;SHT31;62438;52.228;6.864;2022-10-31T11:01:21;16.51;78.21
74081;SHT31;62438;52.228;6.864;2022-10-31T11:03:22;16.44;77.38
74081;SHT31;62438;52.228;6.864;2022-10-31T11:05:42;16.38;78.66
74081;SHT31;62438;52.228;6.864;2022-10-31T11:07:45;16.58;76.64
74081;SHT31;62438;52.228;6.864;2022-10-31T11:09:45;16.57;75.75
74081;SHT31;62438;52.228;6.864;2022-10-31T11:11:48;16.40;77.84
74081;SHT31;62438;52.228;6.864;2022-10-31T11:13:52;16.37;78.22
74081;SHT31;62438;52.228;6.864;2022-10-31T11:16:03;16.35;77.98
74081;SHT31;62438;52.228;6.864;2022-10-31T11:18:04;16.30;76.35
74081;SHT31;62438;52.228;6.864;2022-10-31T11:22:22;16.20;78.05
74081;SHT31;62438;52.228;6.864;2022-10-31T11:24:24;16.21;78.07
74081;SHT31;62438;52.228;6.864;2022-10-31T11:26:27;16.38;77.70
74081;SHT31;62438;52.228;6.864;2022-10-31T11:28:29;16.37;77.73
74081;SHT31;62438;52.228;6.864;2022-10-31T11:30:35;16.33;78.31
74081;SHT31;62438;52.228;6.864;2022-10-31T11:32:42;16.30;78.68
74081;SHT31;62438;52.228;6.864;2022-10-31T11:34:49;16.34;78.08
74081;SHT31;62438;52.228;6.864;2022-10-31T11:36:51;16.35;79.33
74081;SHT31;62438;52.228;6.864;2022-10-31T11:38:53;16.38;78.68
74081;SHT31;62438;52.228;6.864;2022-10-31T11:41:02;16.51;78.11
74081;SHT31;62438;52.228;6.864;2022-10-31T11:43:14;16.41;79.57
74081;SHT31;62438;52.228;6.864;2022-10-31T11:45:29;16.54;79.01
74081;SHT31;62438;52.228;6.864;2022-10-31T11:47:31;16.45;78.66
74081;SHT31;62438;52.228;6.864;2022-10-31T11:49:39;16.44;78.80
74081;SHT31;62438;52.228;6.864;2022-10-31T11:51:41;16.44;79.97
74081;SHT31;62438;52.228;6.864;2022-10-31T11:53:51;16.71;78.36
74081;SHT31;62438;52.228;6.864;2022-10-31T11:56:02;16.71;77.70
74081;SHT31;62438;52.228;6.864;2022-10-31T11:58:04;16.65;79.10
74081;SHT31;62438;52.228;6.864;2022-10-31T12:02:20;17.01;78.19
74081;SHT31;62438;52.228;6.864;2022-10-31T12:04:42;16.99;78.28
74081;SHT31;62438;52.228;6.864;2022-10-31T12:06:45;17.08;77.31
74081;SHT31;62438;52.228;6.864;2022-10-31T12:08:46;17.20;77.63
74081;SHT31;62438;52.228;6.864;2022-10-31T12:13:17;17.34;77.01
74081;SHT31;62438;52.228;6.864;2022-10-31T12:15:31;17.39;76.65
74081;SHT31;62438;52.228;6.864;2022-10-31T12:17:49;17.43;75.81
74081;SHT31;62438;52.228;6.864;2022-10-31T12:22:24;17.37;75.65
74081;SHT31;62438;52.228;6.864;2022-10-31T12:27:22;17.20;76.75
74081;SHT31;62438;52.228;6.864;2022-10-31T12:29:18;17.30;77.83
74081;SHT31;62438;52.228;6.864;2022-10-31T12:37:01;17.43;78.83
74081;SHT31;62438;52.228;6.864;2022-10-31T12:39:35;17.40;78.41
74081;SHT31;62438;52.228;6.864;2022-10-31T12:44:00;17.66;76.93
74081;SHT31;62438;52.228;6.864;2022-10-31T12:46:10;17.61;77.62
74081;SHT31;62438;52.228;6.864;2022-10-31T12:55:11;17.23;79.50
74081;SHT31;62438;52.228;6.864;2022-10-31T12:59:43;17.03;80.98
74081;SHT31;62438;52.228;6.864;2022-10-31T13:01:52;17.01;80.90
74081;SHT31;62438;52.228;6.864;2022-10-31T13:06:09;17.11;80.68
74081;SHT31;62438;52.228;6.864;2022-10-31T13:08:17;17.01;80.67
74081;SHT31;62438;52.228;6.864;2022-10-31T13:10:23;17.02;80.74
74081;SHT31;62438;52.228;6.864;2022-10-31T13:12:26;17.18;79.45
74081;SHT31;62438;52.228;6.864;2022-10-31T13:14:43;17.01;80.50
74081;SHT31;62438;52.228;6.864;2022-10-31T13:16:47;17.01;80.84
74081;SHT31;62438;52.228;6.864;2022-10-31T13:19:09;17.08;80.21
74081;SHT31;62438;52.228;6.864;2022-10-31T13:21:22;17.03;81.07
74081;SHT31;62438;52.228;6.864;2022-10-31T13:23:32;17.05;81.37
74081;SHT31;62438;52.228;6.864;2022-10-31T13:25:38;17.09;80.43
74081;SHT31;62438;52.228;6.864;2022-10-31T13:27:56;17.18;80.07
74081;SHT31;62438;52.228;6.864;2022-10-31T13:30:15;16.92;81.18
74081;SHT31;62438;52.228;6.864;2022-10-31T13:32:16;16.82;81.50
74081;SHT31;62438;52.228;6.864;2022-10-31T13:34:27;16.81;81.54
74081;SHT31;62438;52.228;6.864;2022-10-31T13:39:13;16.79;81.91
74081;SHT31;62438;52.228;6.864;2022-10-31T13:41:28;16.63;82.37
74081;SHT31;62438;52.228;6.864;2022-10-31T13:43:37;16.65;83.08
74081;SHT31;62438;52.228;6.864;2022-10-31T13:45:50;16.81;82.14
74081;SHT31;62438;52.228;6.864;2022-10-31T13:48:00;16.72;82.51
74081;SHT31;62438;52.228;6.864;2022-10-31T13:50:06;16.81;82.36
74081;SHT31;62438;52.228;6.864;2022-10-31T13:54:33;16.69;82.99
74081;SHT31;62438;52.228;6.864;2022-10-31T13:56:34;16.69;83.50
74081;SHT31;62438;52.228;6.864;2022-10-31T13:58:36;16.75;82.83
74081;SHT31;62438;52.228;6.864;2022-10-31T14:00:36;16.64;84.15
74081;SHT31;62438;52.228;6.864;2022-10-31T14:02:37;16.68;83.37
74081;SHT31;62438;52.228;6.864;2022-10-31T14:04:48;16.60;84.05
74081;SHT31;62438;52.228;6.864;2022-10-31T14:06:54;16.68;84.20
74081;SHT31;62438;52.228;6.864;2022-10-31T14:08:57;16.58;84.02
74081;SHT31;62438;52.228;6.864;2022-10-31T14:10:58;16.65;83.89
74081;SHT31;62438;52.228;6.864;2022-10-31T14:13:08;16.53;84.50
74081;SHT31;62438;52.228;6.864;2022-10-31T14:15:22;16.58;84.31
74081;SHT31;62438;52.228;6.864;2022-10-31T14:17:26;16.47;84.74
74081;SHT31;62438;52.228;6.864;2022-10-31T14:19:27;16.54;84.97
74081;SHT31;62438;52.228;6.864;2022-10-31T14:21:36;16.50;84.57
74081;SHT31;62438;52.228;6.864;2022-10-31T14:23:39;16.50;85.29
74081;SHT31;62438;52.228;6.864;2022-10-31T14:25:40;16.48;85.28
74081;SHT31;62438;52.228;6.864;2022-10-31T14:27:45;16.58;85.08
74081;SHT31;62438;52.228;6.864;2022-10-31T14:29:45;16.57;84.99
74081;SHT31;62438;52.228;6.864;2022-10-31T14:31:55;16.57;85.19